Terminal Aerodrome Forecast
Issued by NWS Tuscon, AZ

Home | Current Version | Previous Version | Text Only | Print | Product List | Glossary On
Versions: 1 2 3 4 5 6 7 8 9 10 11 12
000
FTUS45 KTWC 292300
TAFTUS
TAF
KTUS 292339Z 3000/3024 34007KT P6SM FEW110
     FM300300 23005KT P6SM SKC
     FM300800 14007KT P6SM SKC
     FM301900 25006KT P6SM FEW110
     FM302200 29009KT P6SM SCT110=

USA.gov is the U.S. government's official web portal to all federal, state and local government web resources and services.